createdAt,value
2018-07-03T00:00:43.400Z,61.17
2018-07-03T00:03:12.859Z,61.08
2018-07-03T00:05:42.481Z,61.19
2018-07-03T00:08:11.925Z,61.32
2018-07-03T00:10:40.806Z,61.37
2018-07-03T00:13:09.418Z,61.10
2018-07-03T00:15:38.795Z,61.29
2018-07-03T00:18:07.586Z,61.31
2018-07-03T00:20:36.148Z,61.65
2018-07-03T00:23:05.205Z,61.43
2018-07-03T00:25:34.742Z,61.65
2018-07-03T00:28:03.384Z,61.61
2018-07-03T00:30:32.818Z,61.82
2018-07-03T00:33:01.435Z,62.49
2018-07-03T00:35:30.267Z,62.80
2018-07-03T00:37:59.128Z,62.67
2018-07-03T00:40:28.064Z,62.87
2018-07-03T00:42:56.715Z,63.37
2018-07-03T00:45:25.424Z,63.63
2018-07-03T00:47:54.092Z,62.82
2018-07-03T00:50:22.765Z,62.67
2018-07-03T00:52:51.585Z,62.47
2018-07-03T00:55:21.251Z,62.15
2018-07-03T00:57:50.275Z,62.23
2018-07-03T01:00:32.481Z,62.32
2018-07-03T01:03:02.664Z,62.32
2018-07-03T01:05:31.897Z,62.35
2018-07-03T01:08:00.432Z,62.55
2018-07-03T01:10:29.800Z,62.50
2018-07-03T01:12:58.783Z,62.25
2018-07-03T01:15:28.235Z,62.34
2018-07-03T01:17:57.223Z,62.59
2018-07-03T01:20:26.936Z,62.41
2018-07-03T01:22:55.923Z,62.71
2018-07-03T01:25:24.528Z,62.73
2018-07-03T01:27:53.904Z,62.92
2018-07-03T01:30:22.852Z,62.76
2018-07-03T01:32:51.513Z,63.14
2018-07-03T01:35:20.996Z,62.98
2018-07-03T01:37:51.684Z,63.48
2018-07-03T01:40:21.501Z,63.21
2018-07-03T01:42:50.779Z,63.09
2018-07-03T01:45:20.056Z,63.19
2018-07-03T01:47:48.723Z,62.88
2018-07-03T01:53:07.905Z,63.03
2018-07-03T01:55:37.263Z,63.00
2018-07-03T01:58:06.383Z,62.80
2018-07-03T02:00:35.019Z,63.09
2018-07-03T02:03:03.842Z,63.16
2018-07-03T02:05:33.737Z,63.12
2018-07-03T02:08:02.384Z,63.41
2018-07-03T02:10:31.084Z,63.43
2018-07-03T02:12:59.990Z,63.58
2018-07-03T02:15:29.339Z,63.90
2018-07-03T02:17:58.164Z,64.12
2018-07-03T02:20:26.835Z,64.18
2018-07-03T02:22:55.655Z,64.26
2018-07-03T02:25:31.097Z,64.41
2018-07-03T02:27:59.832Z,64.20
2018-07-03T02:30:28.492Z,64.51
2018-07-03T02:32:57.206Z,64.39
2018-07-03T02:35:26.088Z,64.94
2018-07-03T02:37:56.535Z,64.85
2018-07-03T02:40:26.670Z,64.99
2018-07-03T02:42:57.001Z,64.91
2018-07-03T02:45:26.560Z,64.77
2018-07-03T02:47:55.323Z,64.81
2018-07-03T02:50:24.192Z,65.02
2018-07-03T02:52:52.817Z,65.61
2018-07-03T02:55:21.352Z,66.20
2018-07-03T02:57:51.005Z,66.85
2018-07-03T03:00:19.793Z,66.69
2018-07-03T03:05:16.075Z,66.45
2018-07-03T03:07:46.007Z,66.47
2018-07-03T03:10:15.265Z,66.65
2018-07-03T03:12:43.915Z,66.63
2018-07-03T03:15:13.374Z,66.73
2018-07-03T03:17:41.927Z,66.85
2018-07-03T03:20:10.596Z,67.13
2018-07-03T03:22:40.106Z,66.95
2018-07-03T03:25:08.791Z,67.38
2018-07-03T03:27:37.468Z,67.24
2018-07-03T03:30:06.204Z,67.45
2018-07-03T03:32:34.838Z,67.55
2018-07-03T03:35:03.663Z,67.43
2018-07-03T03:37:32.456Z,67.73
2018-07-03T03:40:01.136Z,67.77
2018-07-03T03:42:29.760Z,67.88
2018-07-03T03:44:58.663Z,67.89
2018-07-03T03:47:27.356Z,68.45
2018-07-03T03:49:56.020Z,68.52
2018-07-03T03:52:24.706Z,68.18
2018-07-03T03:54:53.239Z,67.88
2018-07-03T03:57:22.573Z,68.16
2018-07-03T03:59:52.234Z,68.24
2018-07-03T04:02:21.508Z,68.33
2018-07-03T04:04:51.415Z,68.44
2018-07-03T04:07:20.084Z,68.56
2018-07-03T04:09:48.792Z,69.13
2018-07-03T04:12:17.476Z,69.12
2018-07-03T04:14:46.971Z,68.98
2018-07-03T04:17:15.492Z,68.62
2018-07-03T04:19:44.287Z,68.31
2018-07-03T04:22:13.057Z,68.22
2018-07-03T04:24:41.974Z,68.33
2018-07-03T04:27:11.074Z,68.11
2018-07-03T04:29:39.921Z,68.06
2018-07-03T04:32:09.016Z,67.90
2018-07-03T04:34:37.701Z,68.23
2018-07-03T04:37:06.383Z,67.65
2018-07-03T04:39:35.028Z,67.94
2018-07-03T04:42:04.266Z,68.01
2018-07-03T04:44:34.052Z,67.72
2018-07-03T04:47:04.167Z,67.96
2018-07-03T04:49:32.780Z,68.14
2018-07-03T04:52:01.341Z,68.48
2018-07-03T04:54:30.236Z,69.19
2018-07-03T04:56:59.468Z,68.98
2018-07-03T04:59:28.212Z,68.94
2018-07-03T05:01:56.916Z,68.53
2018-07-03T05:04:25.778Z,68.16
2018-07-03T05:06:54.549Z,67.96
2018-07-03T05:09:23.387Z,68.45
2018-07-03T05:11:52.647Z,68.25
2018-07-03T05:14:21.203Z,68.36
2018-07-03T05:16:53.923Z,68.42
2018-07-03T05:19:22.477Z,68.54
2018-07-03T05:21:51.172Z,68.71
2018-07-03T05:24:19.944Z,68.92
2018-07-03T05:26:48.709Z,68.75
2018-07-03T05:29:17.564Z,68.41
2018-07-03T05:31:46.267Z,68.14
2018-07-03T05:34:14.945Z,67.11
2018-07-03T05:36:43.596Z,66.72
2018-07-03T05:39:13.407Z,67.03
2018-07-03T05:41:42.001Z,67.02
2018-07-03T05:44:10.655Z,66.31
2018-07-03T05:46:39.975Z,65.73
2018-07-03T05:49:09.103Z,65.17
2018-07-03T05:51:37.749Z,65.01
2018-07-03T05:54:07.247Z,64.24
2018-07-03T05:56:35.999Z,64.17
2018-07-03T05:59:04.501Z,63.72
2018-07-03T06:01:33.132Z,64.08
2018-07-03T06:04:01.656Z,64.36
2018-07-03T06:06:31.053Z,65.10
2018-07-03T06:08:59.764Z,64.80
2018-07-03T06:11:28.410Z,63.93
2018-07-03T06:13:57.254Z,64.33
2018-07-03T06:16:25.809Z,64.07
2018-07-03T06:18:54.437Z,63.91
2018-07-03T06:21:22.988Z,63.63
2018-07-03T06:23:51.570Z,62.76
2018-07-03T06:26:20.138Z,62.84
2018-07-03T06:28:48.904Z,61.98
2018-07-03T06:31:17.540Z,61.74
2018-07-03T06:33:46.092Z,62.72
2018-07-03T06:36:14.643Z,61.91
2018-07-03T06:38:43.180Z,61.36
2018-07-03T06:41:11.828Z,61.03
2018-07-03T06:43:40.384Z,59.15
2018-07-03T06:46:08.916Z,59.33
2018-07-03T06:48:37.484Z,59.26
2018-07-03T06:51:06.059Z,59.00
2018-07-03T06:53:34.607Z,58.02
2018-07-03T06:56:03.148Z,56.77
2018-07-03T06:58:31.693Z,55.40
2018-07-03T07:01:00.259Z,55.25
2018-07-03T07:03:28.891Z,54.14
2018-07-03T07:05:57.536Z,53.69
2018-07-03T07:08:26.090Z,52.30
2018-07-03T07:10:54.624Z,53.75
2018-07-03T07:13:23.239Z,52.01
2018-07-03T07:15:51.776Z,51.61
2018-07-03T07:18:20.515Z,51.30
2018-07-03T07:20:49.144Z,50.50
2018-07-03T07:23:17.723Z,51.10
2018-07-03T07:25:46.292Z,49.91
2018-07-03T07:28:15.081Z,49.40
2018-07-03T07:30:43.728Z,49.13
2018-07-03T07:33:12.492Z,48.40
2018-07-03T07:35:41.057Z,48.44
2018-07-03T07:38:09.658Z,47.32
2018-07-03T07:40:38.275Z,47.17
2018-07-03T07:43:06.808Z,45.54
2018-07-03T07:45:35.368Z,43.66
2018-07-03T07:48:04.133Z,41.59
2018-07-03T07:50:32.743Z,41.00
2018-07-03T07:53:01.300Z,40.01
2018-07-03T07:55:29.920Z,41.42
2018-07-03T07:57:58.459Z,40.72
2018-07-03T08:00:27.024Z,39.77
2018-07-03T08:02:56.378Z,40.52
2018-07-03T08:05:24.933Z,39.50
2018-07-03T08:07:54.556Z,40.32
2018-07-03T08:10:23.183Z,40.71
2018-07-03T08:12:51.736Z,40.84
2018-07-03T08:15:20.292Z,39.63
2018-07-03T08:17:49.691Z,39.01
2018-07-03T08:20:18.248Z,38.85
2018-07-03T08:22:46.827Z,39.53
2018-07-03T08:25:15.403Z,39.54
2018-07-03T08:27:43.959Z,39.85
2018-07-03T08:30:12.599Z,39.53
2018-07-03T08:32:41.180Z,39.32
2018-07-03T08:35:10.019Z,38.84
2018-07-03T08:37:38.696Z,39.01
2018-07-03T08:40:08.004Z,38.99
2018-07-03T08:42:37.026Z,39.97
2018-07-03T08:45:06.675Z,39.47
2018-07-03T08:47:35.209Z,39.01
2018-07-03T08:50:03.885Z,39.81
2018-07-03T08:52:32.533Z,38.75
2018-07-03T08:55:01.060Z,37.88
2018-07-03T08:57:29.652Z,36.93
2018-07-03T08:59:58.296Z,36.57
2018-07-03T09:02:26.932Z,35.48
2018-07-03T09:04:55.513Z,35.50
2018-07-03T09:07:24.052Z,37.74
2018-07-03T09:09:52.633Z,38.46
2018-07-03T09:12:21.201Z,37.83
2018-07-03T09:14:49.882Z,35.42
2018-07-03T09:17:23.607Z,35.82
2018-07-03T09:19:52.148Z,35.58
2018-07-03T09:22:20.715Z,36.03
2018-07-03T09:24:49.321Z,36.32
2018-07-03T09:27:17.887Z,37.41
2018-07-03T09:29:46.424Z,37.26
2018-07-03T09:32:14.960Z,36.80
2018-07-03T09:34:44.154Z,35.40
2018-07-03T09:37:12.719Z,35.20
2018-07-03T09:39:48.198Z,35.26
2018-07-03T09:42:17.011Z,34.63
2018-07-03T09:44:45.667Z,34.66
2018-07-03T09:47:14.217Z,34.76
2018-07-03T09:49:42.791Z,34.82
2018-07-03T09:52:11.376Z,34.97
2018-07-03T09:54:39.933Z,35.58
2018-07-03T09:57:08.779Z,34.09
2018-07-03T09:59:37.372Z,34.98
2018-07-03T10:02:06.421Z,35.60
2018-07-03T10:04:35.021Z,35.94
2018-07-03T10:07:03.870Z,35.07
2018-07-03T10:09:33.193Z,34.79
2018-07-03T10:12:02.601Z,35.24
2018-07-03T10:14:31.138Z,36.57
2018-07-03T10:16:59.684Z,35.41
2018-07-03T10:19:28.241Z,34.53
2018-07-03T10:21:56.831Z,34.35
2018-07-03T10:24:25.373Z,34.39
2018-07-03T10:26:54.017Z,32.96
2018-07-03T10:29:22.559Z,34.86
2018-07-03T10:31:51.253Z,34.30
2018-07-03T10:34:19.888Z,35.34
2018-07-03T10:36:48.417Z,33.95
2018-07-03T10:39:16.969Z,33.73
2018-07-03T10:41:45.539Z,32.38
2018-07-03T10:44:14.114Z,32.59
2018-07-03T10:46:42.664Z,33.65
2018-07-03T10:49:11.217Z,31.60
2018-07-03T10:51:39.787Z,32.39
2018-07-03T10:54:08.392Z,33.88
2018-07-03T10:56:37.008Z,32.83
2018-07-03T10:59:05.719Z,33.58
2018-07-03T11:01:34.273Z,33.73
2018-07-03T11:04:02.821Z,33.34
2018-07-03T11:06:31.420Z,33.21
2018-07-03T11:08:59.967Z,31.92
2018-07-03T11:11:28.523Z,32.58
2018-07-03T11:13:57.139Z,32.08
2018-07-03T11:16:25.705Z,31.32
2018-07-03T11:18:54.268Z,31.17
2018-07-03T11:21:22.804Z,30.90
2018-07-03T11:23:51.445Z,31.31
2018-07-03T11:26:19.976Z,31.25
2018-07-03T11:28:48.523Z,30.92
2018-07-03T11:31:17.074Z,30.91
2018-07-03T11:33:45.704Z,32.74
2018-07-03T11:36:14.324Z,30.25
2018-07-03T11:38:42.866Z,31.18
2018-07-03T11:41:11.504Z,30.91
2018-07-03T11:43:40.197Z,31.77
2018-07-03T11:46:08.877Z,33.08
2018-07-03T11:48:37.441Z,33.59
2018-07-03T11:51:06.080Z,33.81
2018-07-03T11:53:34.860Z,32.45
2018-07-03T11:56:03.441Z,30.34
2018-07-03T11:58:31.995Z,31.97
2018-07-03T12:01:00.582Z,32.91
2018-07-03T12:03:29.117Z,31.22
2018-07-03T12:05:58.523Z,29.22
2018-07-03T12:08:27.366Z,29.00
2018-07-03T12:10:55.931Z,28.83
2018-07-03T12:13:24.500Z,30.56
2018-07-03T12:15:53.053Z,28.65
2018-07-03T12:18:26.747Z,30.69
2018-07-03T12:20:55.692Z,30.74
2018-07-03T12:23:24.255Z,30.46
2018-07-03T12:25:52.826Z,29.48
2018-07-03T12:28:21.396Z,29.24
2018-07-03T12:30:49.953Z,28.78
2018-07-03T12:33:18.509Z,28.91
2018-07-03T12:35:47.090Z,29.27
2018-07-03T12:38:15.616Z,29.91
2018-07-03T12:40:44.176Z,29.73
2018-07-03T12:43:12.730Z,29.37
2018-07-03T12:45:41.393Z,29.41
2018-07-03T12:48:10.025Z,30.08
2018-07-03T12:50:38.625Z,28.93
2018-07-03T12:53:07.251Z,29.16
2018-07-03T12:55:35.796Z,28.42
2018-07-03T12:58:04.465Z,29.14
2018-07-03T13:00:33.020Z,29.61
2018-07-03T13:03:01.560Z,29.61
2018-07-03T13:05:30.132Z,28.44
2018-07-03T13:07:58.702Z,29.44
2018-07-03T13:10:27.271Z,29.31
2018-07-03T13:12:55.881Z,29.27
2018-07-03T13:15:24.448Z,28.30
2018-07-03T13:17:53.096Z,29.14
2018-07-03T13:20:21.682Z,29.86
2018-07-03T13:22:50.312Z,30.54
2018-07-03T13:25:18.927Z,28.55
2018-07-03T13:27:47.643Z,28.65
2018-07-03T13:30:16.246Z,27.09
2018-07-03T13:32:44.825Z,27.00
2018-07-03T13:35:13.416Z,28.09
2018-07-03T13:37:42.025Z,28.54
2018-07-03T13:40:11.111Z,27.09
2018-07-03T13:42:39.684Z,27.63
2018-07-03T13:45:08.285Z,27.97
2018-07-03T13:47:36.855Z,27.22
2018-07-03T13:50:05.724Z,28.05
2018-07-03T13:52:34.373Z,27.81
2018-07-03T13:55:03.197Z,28.02
2018-07-03T13:57:31.811Z,29.05
2018-07-03T14:00:00.356Z,29.27
2018-07-03T14:02:29.468Z,29.61
2018-07-03T14:04:58.041Z,28.95
2018-07-03T14:07:26.599Z,30.08
2018-07-03T14:09:56.023Z,29.21
2018-07-03T14:12:24.600Z,29.40
2018-07-03T14:14:53.180Z,28.99
2018-07-03T14:17:21.792Z,29.04
2018-07-03T14:19:50.448Z,29.02
2018-07-03T14:22:19.008Z,29.12
2018-07-03T14:24:47.584Z,29.49
2018-07-03T14:27:16.171Z,29.52
2018-07-03T14:29:44.743Z,29.86
2018-07-03T14:32:13.317Z,30.10
2018-07-03T14:34:41.875Z,29.99
2018-07-03T14:37:10.488Z,30.24
2018-07-03T14:39:39.076Z,30.18
2018-07-03T14:42:07.821Z,28.61
2018-07-03T14:44:36.431Z,28.71
2018-07-03T14:47:05.016Z,29.62
2018-07-03T14:49:33.571Z,29.99
2018-07-03T14:52:02.145Z,29.99
2018-07-03T14:54:30.720Z,30.22
2018-07-03T14:56:59.485Z,30.38
2018-07-03T14:59:28.089Z,29.99
2018-07-03T15:01:56.829Z,30.73
2018-07-03T15:04:25.490Z,31.45
2018-07-03T15:06:54.440Z,30.73
2018-07-03T15:09:23.017Z,31.52
2018-07-03T15:11:51.576Z,31.95
2018-07-03T15:14:20.129Z,31.90
2018-07-03T15:16:48.653Z,32.11
2018-07-03T15:19:22.561Z,32.43
2018-07-03T15:21:51.101Z,32.69
2018-07-03T15:24:19.650Z,32.68
2018-07-03T15:26:48.193Z,32.11
2018-07-03T15:29:16.797Z,31.26
2018-07-03T15:31:45.412Z,32.00
2018-07-03T15:34:13.951Z,32.60
2018-07-03T15:36:42.495Z,32.11
2018-07-03T15:39:13.583Z,32.71
2018-07-03T15:41:42.679Z,32.45
2018-07-03T15:44:22.200Z,33.06
2018-07-03T15:46:50.779Z,33.25
2018-07-03T15:49:19.495Z,33.22
2018-07-03T15:51:48.372Z,33.06
2018-07-03T15:54:16.928Z,32.42
2018-07-03T15:56:45.464Z,32.46
2018-07-03T15:59:14.224Z,30.85
2018-07-03T16:01:42.784Z,31.30
2018-07-03T16:05:22.191Z,31.67
2018-07-03T16:08:05.023Z,31.42
2018-07-03T16:10:34.523Z,32.29
2018-07-03T16:13:03.883Z,32.08
2018-07-03T16:15:32.477Z,31.90
2018-07-03T16:18:01.044Z,34.40
2018-07-03T16:20:34.876Z,34.37
2018-07-03T16:23:03.716Z,38.81
2018-07-03T16:25:32.250Z,40.57
2018-07-03T16:28:00.835Z,40.57
2018-07-03T16:30:34.078Z,41.63
2018-07-03T16:33:02.880Z,41.71
2018-07-03T16:35:31.457Z,41.98
2018-07-03T16:38:00.004Z,42.94
2018-07-03T16:40:28.584Z,42.57
2018-07-03T16:42:57.191Z,42.93
2018-07-03T16:45:25.787Z,43.33
2018-07-03T16:47:54.348Z,43.25
2018-07-03T16:50:23.020Z,43.56
2018-07-03T16:52:51.855Z,43.74
2018-07-03T16:55:20.498Z,43.78
2018-07-03T16:57:49.080Z,44.58
2018-07-03T17:00:27.221Z,44.33
2018-07-03T17:02:55.851Z,44.23
2018-07-03T17:05:24.759Z,44.34
2018-07-03T17:07:53.740Z,45.02
2018-07-03T17:10:22.304Z,44.15
2018-07-03T17:12:50.884Z,45.01
2018-07-03T17:15:19.450Z,45.09
2018-07-03T17:17:47.979Z,45.88
2018-07-03T17:20:16.713Z,45.43
2018-07-03T17:22:45.253Z,45.81
2018-07-03T17:25:13.817Z,45.07
2018-07-03T17:27:42.398Z,44.84
2018-07-03T17:30:11.208Z,44.42
2018-07-03T17:32:39.740Z,45.58
2018-07-03T17:35:08.433Z,44.74
2018-07-03T17:37:37.232Z,45.02
2018-07-03T17:40:16.828Z,45.46
2018-07-03T17:42:56.525Z,45.46
2018-07-03T17:45:38.627Z,45.98
2018-07-03T17:48:08.606Z,46.42
2018-07-03T17:50:37.200Z,47.20
2018-07-03T17:53:06.108Z,47.65
2018-07-03T17:55:35.111Z,47.54
2018-07-03T18:00:31.877Z,48.11
2018-07-03T18:03:00.659Z,48.50
2018-07-03T18:05:30.790Z,48.96
2018-07-03T18:07:59.604Z,48.81
2018-07-03T18:10:28.249Z,49.09
2018-07-03T18:12:56.858Z,48.89
2018-07-03T18:15:25.547Z,49.16
2018-07-03T18:17:54.066Z,48.71
2018-07-03T18:20:22.727Z,48.69
2018-07-03T18:22:51.276Z,49.45
2018-07-03T18:25:19.890Z,49.64
2018-07-03T18:27:48.482Z,50.17
2018-07-03T18:30:17.076Z,50.35
2018-07-03T18:32:45.744Z,51.33
2018-07-03T18:35:14.350Z,50.83
2018-07-03T18:37:42.968Z,51.01
2018-07-03T18:40:11.559Z,51.17
2018-07-03T18:42:40.106Z,51.17
2018-07-03T18:45:08.727Z,50.77
2018-07-03T18:47:37.272Z,49.28
2018-07-03T18:50:06.176Z,49.39
2018-07-03T18:52:34.784Z,49.13
2018-07-03T18:55:03.352Z,49.79
2018-07-03T18:57:32.249Z,51.77
2018-07-03T19:00:00.848Z,51.65
2018-07-03T19:02:29.399Z,51.61
2018-07-03T19:04:57.933Z,52.12
2018-07-03T19:07:26.676Z,53.16
2018-07-03T19:09:55.245Z,54.05
2018-07-03T19:12:23.848Z,53.63
2018-07-03T19:14:52.391Z,53.98
2018-07-03T19:17:20.959Z,52.67
2018-07-03T19:19:49.516Z,52.58
2018-07-03T19:22:18.054Z,51.88
2018-07-03T19:24:46.703Z,52.18
2018-07-03T19:27:15.230Z,51.47
2018-07-03T19:29:43.760Z,51.65
2018-07-03T19:32:12.535Z,52.49
2018-07-03T19:34:41.176Z,52.17
2018-07-03T19:37:09.795Z,52.15
2018-07-03T19:39:38.341Z,52.14
2018-07-03T19:42:07.024Z,52.44
2018-07-03T19:44:35.499Z,53.19
2018-07-03T19:47:04.195Z,53.43
2018-07-03T19:49:32.912Z,53.85
2018-07-03T19:52:02.599Z,53.85
2018-07-03T19:54:31.412Z,54.04
2018-07-03T19:57:00.010Z,54.46
2018-07-03T19:59:28.632Z,54.59
2018-07-03T20:01:57.152Z,54.75
2018-07-03T20:04:25.687Z,54.48
2018-07-03T20:06:55.322Z,54.20
2018-07-03T20:09:23.844Z,53.93
2018-07-03T20:11:52.422Z,54.47
2018-07-03T20:14:20.988Z,54.09
2018-07-03T20:16:49.517Z,53.93
2018-07-03T20:19:18.170Z,53.80
2018-07-03T20:21:47.427Z,53.75
2018-07-03T20:24:17.068Z,53.71
2018-07-03T20:26:45.623Z,53.98
2018-07-03T20:29:14.807Z,53.59
2018-07-03T20:31:43.512Z,53.92
2018-07-03T20:34:13.478Z,53.96
2018-07-03T20:36:42.592Z,53.76
2018-07-03T20:39:12.040Z,53.36
2018-07-03T20:41:40.623Z,53.67
2018-07-03T20:44:09.187Z,53.83
2018-07-03T20:46:38.618Z,53.99
2018-07-03T20:49:07.189Z,53.65
2018-07-03T20:51:36.050Z,53.76
2018-07-03T20:54:04.584Z,53.90
2018-07-03T20:56:33.174Z,53.88
2018-07-03T20:59:01.814Z,55.14
2018-07-03T21:01:30.360Z,54.96
2018-07-03T21:03:59.043Z,55.17
2018-07-03T21:06:27.601Z,55.74
2018-07-03T21:08:56.168Z,55.90
2018-07-03T21:11:25.795Z,55.90
2018-07-03T21:13:54.479Z,55.57
2018-07-03T21:16:23.264Z,55.39
2018-07-03T21:18:52.603Z,55.67
2018-07-03T21:21:21.595Z,55.06
2018-07-03T21:23:50.359Z,55.08
2018-07-03T21:26:19.307Z,54.78
2018-07-03T21:28:48.099Z,54.98
2018-07-03T21:31:16.831Z,54.87
2018-07-03T21:33:45.840Z,54.45
2018-07-03T21:36:14.546Z,54.56
2018-07-03T21:38:43.693Z,55.24
2018-07-03T21:41:13.172Z,55.33
2018-07-03T21:43:41.867Z,55.60
2018-07-03T21:46:10.551Z,55.44
2018-07-03T21:48:39.520Z,55.43
2018-07-03T21:51:08.369Z,55.54
2018-07-03T21:53:36.994Z,55.56
2018-07-03T21:56:05.928Z,55.32
2018-07-03T21:58:35.132Z,55.35
2018-07-03T22:01:04.459Z,55.28
2018-07-03T22:03:32.986Z,54.95
2018-07-03T22:06:03.002Z,55.24
2018-07-03T22:08:32.969Z,54.85
2018-07-03T22:11:01.689Z,55.11
2018-07-03T22:13:30.999Z,55.22
2018-07-03T22:15:59.703Z,55.50
2018-07-03T22:18:29.037Z,55.63
2018-07-03T22:20:58.685Z,55.68
2018-07-03T22:23:27.991Z,56.12
2018-07-03T22:25:57.243Z,56.78
2018-07-03T22:28:26.199Z,57.21
2018-07-03T22:30:55.422Z,57.18
2018-07-03T22:33:24.383Z,56.44
2018-07-03T22:35:54.493Z,56.81
2018-07-03T22:38:24.064Z,56.62
2018-07-03T22:40:53.697Z,56.78
2018-07-03T22:43:22.215Z,56.39
2018-07-03T22:45:51.419Z,56.03
2018-07-03T22:51:11.660Z,55.88
2018-07-03T22:53:40.248Z,56.20
2018-07-03T22:56:10.540Z,55.57
2018-07-03T22:58:42.212Z,55.87
2018-07-03T23:01:12.107Z,55.74
2018-07-03T23:03:41.080Z,56.04
2018-07-03T23:06:09.976Z,55.77
2018-07-03T23:08:38.723Z,56.16
2018-07-03T23:11:07.460Z,55.75
2018-07-03T23:13:36.010Z,56.14
2018-07-03T23:16:04.640Z,55.70
2018-07-03T23:18:33.181Z,55.96
2018-07-03T23:21:01.780Z,55.50
2018-07-03T23:23:30.327Z,55.80
2018-07-03T23:25:58.853Z,55.95
2018-07-03T23:28:27.411Z,56.03
2018-07-03T23:30:55.968Z,56.31
2018-07-03T23:33:24.498Z,55.66
2018-07-03T23:35:53.050Z,56.07
2018-07-03T23:38:21.853Z,56.35
2018-07-03T23:40:50.488Z,56.17
2018-07-03T23:43:19.304Z,56.26
2018-07-03T23:45:54.576Z,56.56
2018-07-03T23:48:34.304Z,56.56
2018-07-03T23:51:15.320Z,56.51
2018-07-03T23:53:55.124Z,56.53
2018-07-03T23:56:35.796Z,56.71
2018-07-03T23:59:15.657Z,56.46
